createdAt,value
2018-03-18T00:01:41.997Z,99671.69
2018-03-18T00:04:10.428Z,99659.84
2018-03-18T00:06:38.901Z,99673.09
2018-03-18T00:09:07.313Z,99673.97
2018-03-18T00:11:35.741Z,99674.57
2018-03-18T00:14:04.215Z,99667.59
2018-03-18T00:16:32.624Z,99669.95
2018-03-18T00:19:01.044Z,99670.89
2018-03-18T00:21:29.498Z,99670.09
2018-03-18T00:23:57.915Z,99682.62
2018-03-18T00:26:26.325Z,99691.88
2018-03-18T00:28:54.775Z,99681.83
2018-03-18T00:31:23.187Z,99693.00
2018-03-18T00:33:51.598Z,99687.91
2018-03-18T00:36:20.042Z,99708.91
2018-03-18T00:38:48.468Z,99694.15
2018-03-18T00:41:16.884Z,99706.70
2018-03-18T00:43:45.348Z,99697.08
2018-03-18T00:46:13.763Z,99698.80
2018-03-18T00:48:42.192Z,99694.02
2018-03-18T00:51:10.692Z,99699.17
2018-03-18T00:53:39.112Z,99702.55
2018-03-18T00:56:07.513Z,99695.06
2018-03-18T00:58:35.961Z,99694.58
2018-03-18T01:01:04.366Z,99702.62
2018-03-18T01:03:32.778Z,99703.59
2018-03-18T01:06:01.221Z,99689.73
2018-03-18T01:08:29.640Z,99695.05
2018-03-18T01:10:58.050Z,99705.17
2018-03-18T01:13:26.519Z,99693.11
2018-03-18T01:15:54.941Z,99701.75
2018-03-18T01:18:23.360Z,99690.75
2018-03-18T01:20:51.824Z,99696.55
2018-03-18T01:23:20.244Z,99696.16
2018-03-18T01:25:48.648Z,99690.50
2018-03-18T01:28:17.099Z,99693.31
2018-03-18T01:30:45.510Z,99684.74
2018-03-18T01:33:13.929Z,99682.13
2018-03-18T01:35:42.390Z,99678.97
2018-03-18T01:38:10.802Z,99682.80
2018-03-18T01:40:39.210Z,99675.86
2018-03-18T01:43:07.681Z,99684.01
2018-03-18T01:45:36.100Z,99678.98
2018-03-18T01:48:04.529Z,99678.02
2018-03-18T01:50:33.012Z,99680.16
2018-03-18T01:53:13.272Z,99681.05
2018-03-18T01:55:41.722Z,99680.41
2018-03-18T01:58:10.128Z,99674.02
2018-03-18T02:00:38.547Z,99682.44
2018-03-18T02:03:07.015Z,99676.17
2018-03-18T02:05:35.450Z,99687.16
2018-03-18T02:08:03.885Z,99679.36
2018-03-18T02:10:32.340Z,99679.83
2018-03-18T02:13:00.772Z,99678.11
2018-03-18T02:15:29.194Z,99680.58
2018-03-18T02:17:57.672Z,99680.09
2018-03-18T02:20:26.106Z,99681.45
2018-03-18T02:22:54.547Z,99687.27
2018-03-18T02:25:23.024Z,99687.68
2018-03-18T02:27:51.453Z,99682.05
2018-03-18T02:30:19.869Z,99686.94
2018-03-18T02:32:48.324Z,99685.48
2018-03-18T02:35:16.738Z,99678.12
2018-03-18T02:37:45.149Z,99683.70
2018-03-18T02:40:13.629Z,99680.50
2018-03-18T02:42:42.042Z,99671.05
2018-03-18T02:45:10.463Z,99670.70
2018-03-18T02:47:38.938Z,99676.86
2018-03-18T02:50:07.369Z,99672.94
2018-03-18T02:52:35.796Z,99685.33
2018-03-18T02:55:04.294Z,99677.08
2018-03-18T02:57:32.709Z,99672.11
2018-03-18T03:00:01.125Z,99665.27
2018-03-18T03:02:29.583Z,99671.17
2018-03-18T03:04:58.003Z,99674.42
2018-03-18T03:07:26.423Z,99675.38
2018-03-18T03:09:54.889Z,99671.39
2018-03-18T03:12:23.298Z,99674.27
2018-03-18T03:14:51.724Z,99671.97
2018-03-18T03:17:20.206Z,99678.67
2018-03-18T03:19:48.622Z,99674.44
2018-03-18T03:22:17.057Z,99683.97
2018-03-18T03:24:45.528Z,99684.31
2018-03-18T03:27:13.956Z,99673.63
2018-03-18T03:29:42.393Z,99683.06
2018-03-18T03:32:10.847Z,99675.73
2018-03-18T03:34:39.268Z,99693.25
2018-03-18T03:37:07.678Z,99682.27
2018-03-18T03:39:36.136Z,99679.81
2018-03-18T03:42:04.608Z,99691.22
2018-03-18T03:44:33.022Z,99675.25
2018-03-18T03:47:01.500Z,99685.34
2018-03-18T03:49:29.926Z,99685.36
2018-03-18T03:51:58.354Z,99700.70
2018-03-18T03:54:26.803Z,99686.69
2018-03-18T03:56:55.224Z,99682.50
2018-03-18T03:59:23.656Z,99679.98
2018-03-18T04:01:52.122Z,99686.42
2018-03-18T04:04:20.530Z,99680.09
2018-03-18T04:06:48.947Z,99679.59
2018-03-18T04:09:17.393Z,99668.91
2018-03-18T04:11:45.798Z,99675.98
2018-03-18T04:14:14.219Z,99682.42
2018-03-18T04:16:42.670Z,99686.89
2018-03-18T04:19:11.093Z,99683.59
2018-03-18T04:21:39.515Z,99697.58
2018-03-18T04:24:08.067Z,99693.53
2018-03-18T04:26:36.491Z,99683.39
2018-03-18T04:29:04.913Z,99680.55
2018-03-18T04:31:33.394Z,99678.73
2018-03-18T04:34:01.820Z,99684.36
2018-03-18T04:36:30.234Z,99682.75
2018-03-18T04:38:58.700Z,99687.06
2018-03-18T04:41:27.127Z,99682.69
2018-03-18T04:43:55.546Z,99686.99
2018-03-18T04:46:24.024Z,99692.19
2018-03-18T04:48:52.447Z,99707.12
2018-03-18T04:51:20.858Z,99702.84
2018-03-18T04:53:49.314Z,99688.60
2018-03-18T04:56:17.727Z,99709.53
2018-03-18T04:58:46.147Z,99698.70
2018-03-18T05:01:14.598Z,99707.16
2018-03-18T05:03:43.020Z,99708.49
2018-03-18T05:06:11.477Z,99703.56
2018-03-18T05:08:39.938Z,99716.70
2018-03-18T05:11:08.358Z,99716.70
2018-03-18T05:13:36.781Z,99716.35
2018-03-18T05:16:05.260Z,99732.08
2018-03-18T05:18:33.684Z,99721.22
2018-03-18T05:21:02.105Z,99726.28
2018-03-18T05:23:30.550Z,99727.34
2018-03-18T05:25:58.958Z,99732.08
2018-03-18T05:28:27.376Z,99732.08
2018-03-18T05:30:55.822Z,99733.98
2018-03-18T05:33:24.248Z,99739.98
2018-03-18T05:35:52.669Z,99740.36
2018-03-18T05:38:21.139Z,99758.73
2018-03-18T05:40:49.562Z,99736.95
2018-03-18T05:43:17.977Z,99749.87
2018-03-18T05:45:46.430Z,99744.62
2018-03-18T05:48:14.842Z,99761.62
2018-03-18T05:50:43.259Z,99745.34
2018-03-18T05:53:11.715Z,99757.89
2018-03-18T05:55:40.123Z,99767.25
2018-03-18T05:58:08.526Z,99775.66
2018-03-18T06:00:36.996Z,99748.63
2018-03-18T06:03:05.413Z,99759.85
2018-03-18T06:05:33.840Z,99777.23
2018-03-18T06:08:02.319Z,99775.02
2018-03-18T06:10:30.736Z,99774.69
2018-03-18T06:12:59.160Z,99779.02
2018-03-18T06:15:27.626Z,99769.09
2018-03-18T06:17:56.069Z,99779.34
2018-03-18T06:20:24.496Z,99793.28
2018-03-18T06:22:52.942Z,99775.95
2018-03-18T06:25:21.345Z,99796.45
2018-03-18T06:27:49.754Z,99785.14
2018-03-18T06:30:18.247Z,99789.30
2018-03-18T06:32:46.662Z,99793.62
2018-03-18T06:35:15.079Z,99791.03
2018-03-18T06:37:43.542Z,99810.75
2018-03-18T06:40:11.960Z,99797.70
2018-03-18T06:42:40.416Z,99795.93
2018-03-18T06:45:08.892Z,99804.62
2018-03-18T06:47:37.332Z,99801.13
2018-03-18T06:50:05.748Z,99794.19
2018-03-18T06:52:34.216Z,99803.09
2018-03-18T06:55:02.622Z,99819.34
2018-03-18T06:57:31.040Z,99805.70
2018-03-18T06:59:59.504Z,99809.50
2018-03-18T07:02:27.939Z,99818.73
2018-03-18T07:04:56.356Z,99820.92
2018-03-18T07:07:24.848Z,99815.22
2018-03-18T07:09:53.538Z,99809.38
2018-03-18T07:12:21.941Z,99820.80
2018-03-18T07:14:50.385Z,99829.54
2018-03-18T07:17:18.802Z,99827.35
2018-03-18T07:19:47.210Z,99835.91
2018-03-18T07:22:15.659Z,99860.19
2018-03-18T07:24:44.074Z,99840.01
2018-03-18T07:27:12.486Z,99838.23
2018-03-18T07:29:40.960Z,99842.20
2018-03-18T07:32:09.389Z,99843.30
2018-03-18T07:34:37.798Z,99854.06
2018-03-18T07:37:06.257Z,99851.83
2018-03-18T07:39:34.674Z,99858.28
2018-03-18T07:42:03.115Z,99857.31
2018-03-18T07:44:31.567Z,99863.56
2018-03-18T07:46:59.978Z,99864.41
2018-03-18T07:49:28.396Z,99871.49
2018-03-18T07:51:56.855Z,99870.68
2018-03-18T07:54:25.261Z,99859.62
2018-03-18T07:56:53.661Z,99853.66
2018-03-18T07:59:22.114Z,99860.33
2018-03-18T08:01:50.538Z,99853.88
2018-03-18T08:04:18.941Z,99866.39
2018-03-18T08:06:47.402Z,99868.16
2018-03-18T08:09:15.806Z,99880.75
2018-03-18T08:11:44.224Z,99876.23
2018-03-18T08:14:12.713Z,99887.27
2018-03-18T08:16:41.136Z,99888.17
2018-03-18T08:19:09.559Z,99889.43
2018-03-18T08:21:38.032Z,99886.44
2018-03-18T08:24:06.459Z,99889.87
2018-03-18T08:26:34.916Z,99884.02
2018-03-18T08:29:03.380Z,99892.41
2018-03-18T08:31:31.791Z,99893.59
2018-03-18T08:34:00.210Z,99891.09
2018-03-18T08:36:28.676Z,99894.46
2018-03-18T08:38:57.090Z,99910.20
2018-03-18T08:41:25.512Z,99908.73
2018-03-18T08:43:54.005Z,99905.88
2018-03-18T08:46:22.430Z,99906.16
2018-03-18T08:48:50.847Z,99912.09
2018-03-18T08:51:19.313Z,99911.27
2018-03-18T08:53:47.738Z,99912.42
2018-03-18T08:56:16.167Z,99922.05
2018-03-18T08:58:44.634Z,99925.23
2018-03-18T09:01:13.072Z,99899.09
2018-03-18T09:03:41.492Z,99909.49
2018-03-18T09:06:09.965Z,99913.86
2018-03-18T09:08:38.378Z,99913.34
2018-03-18T09:11:06.795Z,99914.18
2018-03-18T09:13:35.258Z,99923.67
2018-03-18T09:16:03.683Z,99914.81
2018-03-18T09:18:32.100Z,99923.25
2018-03-18T09:21:00.565Z,99929.12
2018-03-18T09:23:29.010Z,99914.00
2018-03-18T09:25:57.436Z,99930.22
2018-03-18T09:28:25.886Z,99914.77
2018-03-18T09:30:54.294Z,99926.05
2018-03-18T09:33:22.702Z,99923.41
2018-03-18T09:35:51.145Z,99917.02
2018-03-18T09:38:19.573Z,99913.61
2018-03-18T09:40:47.986Z,99922.30
2018-03-18T09:43:17.078Z,99932.23
2018-03-18T09:45:45.486Z,99917.84
2018-03-18T09:48:13.881Z,99923.09
2018-03-18T09:50:42.336Z,99922.00
2018-03-18T09:53:10.757Z,99914.27
2018-03-18T09:55:39.162Z,99922.66
2018-03-18T09:58:07.607Z,99925.13
2018-03-18T10:00:36.020Z,99917.66
2018-03-18T10:03:04.423Z,99930.20
2018-03-18T10:05:32.887Z,99921.38
2018-03-18T10:08:01.304Z,99932.89
2018-03-18T10:10:29.734Z,99923.72
2018-03-18T10:12:58.327Z,99919.98
2018-03-18T10:15:26.723Z,99927.63
2018-03-18T10:17:55.159Z,99911.05
2018-03-18T10:20:23.647Z,99914.49
2018-03-18T10:22:52.078Z,99913.36
2018-03-18T10:25:20.510Z,99910.11
2018-03-18T10:27:48.958Z,99913.08
2018-03-18T10:30:17.361Z,99922.30
2018-03-18T10:32:45.763Z,99915.47
2018-03-18T10:35:14.334Z,99912.66
2018-03-18T10:37:42.750Z,99894.69
2018-03-18T10:40:11.168Z,99910.37
2018-03-18T10:42:39.632Z,99904.36
2018-03-18T10:45:08.033Z,99907.08
2018-03-18T10:47:36.442Z,99909.37
2018-03-18T10:50:04.919Z,99906.66
2018-03-18T10:52:33.332Z,99893.29
2018-03-18T10:55:01.892Z,99891.14
2018-03-18T10:57:30.338Z,99904.58
2018-03-18T10:59:58.738Z,99906.91
2018-03-18T11:02:27.157Z,99902.91
2018-03-18T11:04:55.610Z,99902.84
2018-03-18T11:07:24.028Z,99902.20
2018-03-18T11:09:52.437Z,99911.22
2018-03-18T11:12:20.888Z,99916.19
2018-03-18T11:14:49.300Z,99906.78
2018-03-18T11:17:17.724Z,99914.22
2018-03-18T11:19:46.176Z,99909.30
2018-03-18T11:22:14.613Z,99917.48
2018-03-18T11:24:43.028Z,99912.72
2018-03-18T11:27:11.526Z,99914.34
2018-03-18T11:29:40.131Z,99911.33
2018-03-18T11:32:08.533Z,99920.70
2018-03-18T11:34:37.003Z,99912.05
2018-03-18T11:37:05.420Z,99915.55
2018-03-18T11:39:33.845Z,99916.41
2018-03-18T11:42:02.299Z,99923.92
2018-03-18T11:44:30.750Z,99911.15
2018-03-18T11:46:59.153Z,99921.42
2018-03-18T11:49:27.607Z,99928.20
2018-03-18T11:51:56.021Z,99921.95
2018-03-18T11:54:24.525Z,99917.03
2018-03-18T11:56:52.922Z,99911.38
2018-03-18T11:59:21.328Z,99909.45
2018-03-18T12:01:49.751Z,99907.05
2018-03-18T12:04:18.216Z,99918.69
2018-03-18T12:06:46.636Z,99929.34
2018-03-18T12:09:15.039Z,99923.22
2018-03-18T12:11:43.488Z,99893.75
2018-03-18T12:14:11.916Z,99907.28
2018-03-18T12:16:40.333Z,99886.83
2018-03-18T12:19:08.792Z,99886.39
2018-03-18T12:21:37.223Z,99896.40
2018-03-18T12:24:05.630Z,99890.00
2018-03-18T12:26:34.085Z,99891.41
2018-03-18T12:29:02.516Z,99878.13
2018-03-18T12:31:30.928Z,99889.51
2018-03-18T12:33:59.380Z,99887.84
2018-03-18T12:36:27.796Z,99880.20
2018-03-18T12:38:56.212Z,99875.56
2018-03-18T12:41:24.688Z,99879.95
2018-03-18T12:43:53.094Z,99877.57
2018-03-18T12:46:21.538Z,99858.55
2018-03-18T12:48:49.993Z,99852.88
2018-03-18T12:51:18.410Z,99859.22
2018-03-18T12:53:46.844Z,99872.37
2018-03-18T12:56:15.298Z,99862.29
2018-03-18T12:58:43.699Z,99844.20
2018-03-18T13:01:12.118Z,99861.41
2018-03-18T13:03:40.562Z,99861.58
2018-03-18T13:06:08.975Z,99866.61
2018-03-18T13:08:37.388Z,99859.23
2018-03-18T13:11:05.829Z,99854.83
2018-03-18T13:13:34.222Z,99847.38
2018-03-18T13:16:02.618Z,99864.81
2018-03-18T13:18:31.078Z,99840.41
2018-03-18T13:20:59.474Z,99848.99
2018-03-18T13:23:27.873Z,99847.95
2018-03-18T13:25:56.324Z,99846.59
2018-03-18T13:28:24.728Z,99842.63
2018-03-18T13:30:53.140Z,99837.08
2018-03-18T13:33:21.591Z,99834.39
2018-03-18T13:35:49.986Z,99842.84
2018-03-18T13:38:18.386Z,99835.75
2018-03-18T13:40:46.834Z,99834.39
2018-03-18T13:43:16.143Z,99852.85
2018-03-18T13:45:44.545Z,99834.81
2018-03-18T13:48:12.992Z,99838.39
2018-03-18T13:50:41.405Z,99840.97
2018-03-18T13:53:09.813Z,99832.24
2018-03-18T13:55:38.258Z,99836.22
2018-03-18T13:58:06.664Z,99824.06
2018-03-18T14:00:35.058Z,99817.88
2018-03-18T14:03:03.499Z,99827.39
2018-03-18T14:05:31.929Z,99822.04
2018-03-18T14:08:00.326Z,99823.38
2018-03-18T14:10:28.767Z,99821.82
2018-03-18T14:12:57.175Z,99823.40
2018-03-18T14:15:25.579Z,99812.55
2018-03-18T14:17:54.033Z,99824.05
2018-03-18T14:20:22.478Z,99817.54
2018-03-18T14:22:50.878Z,99803.74
2018-03-18T14:25:19.322Z,99816.36
2018-03-18T14:27:47.728Z,99811.09
2018-03-18T14:30:16.131Z,99806.84
2018-03-18T14:32:44.600Z,99801.75
2018-03-18T14:35:13.029Z,99799.83
2018-03-18T14:37:41.442Z,99809.09
2018-03-18T14:40:09.906Z,99799.55
2018-03-18T14:42:38.308Z,99805.99
2018-03-18T14:45:06.706Z,99798.58
2018-03-18T14:47:35.149Z,99809.38
2018-03-18T14:50:03.551Z,99793.28
2018-03-18T14:52:31.945Z,99798.77
2018-03-18T14:55:00.382Z,99796.05
2018-03-18T14:57:28.774Z,99806.60
2018-03-18T14:59:57.197Z,99797.94
2018-03-18T15:02:25.659Z,99816.47
2018-03-18T15:04:54.062Z,99787.92
2018-03-18T15:07:22.485Z,99790.66
2018-03-18T15:09:50.950Z,99785.72
2018-03-18T15:12:19.376Z,99798.30
2018-03-18T15:14:47.788Z,99773.34
2018-03-18T15:17:16.250Z,99780.20
2018-03-18T15:19:44.655Z,99779.92
2018-03-18T15:22:13.064Z,99779.42
2018-03-18T15:24:41.531Z,99780.47
2018-03-18T15:27:09.952Z,99779.16
2018-03-18T15:29:38.363Z,99776.80
2018-03-18T15:32:06.834Z,99776.73
2018-03-18T15:34:35.338Z,99773.64
2018-03-18T15:37:03.777Z,99775.30
2018-03-18T15:39:32.233Z,99774.37
2018-03-18T15:42:00.634Z,99761.53
2018-03-18T15:44:29.038Z,99766.30
2018-03-18T15:46:57.666Z,99772.20
2018-03-18T15:49:26.076Z,99769.29
2018-03-18T15:51:54.503Z,99765.45
2018-03-18T15:54:22.966Z,99763.98
2018-03-18T15:56:51.390Z,99760.39
2018-03-18T15:59:19.791Z,99762.92
2018-03-18T16:01:48.230Z,99763.63
2018-03-18T16:04:16.653Z,99772.81
2018-03-18T16:06:45.063Z,99765.25
2018-03-18T16:09:13.538Z,99771.12
2018-03-18T16:11:41.947Z,99778.71
2018-03-18T16:14:10.356Z,99766.58
2018-03-18T16:16:38.798Z,99770.28
2018-03-18T16:19:07.195Z,99760.14
2018-03-18T16:21:35.607Z,99769.33
2018-03-18T16:24:04.085Z,99773.84
2018-03-18T16:26:32.502Z,99778.11
2018-03-18T16:29:12.748Z,99781.95
2018-03-18T16:31:41.145Z,99793.28
2018-03-18T16:34:09.573Z,99790.56
2018-03-18T16:36:38.045Z,99792.04
2018-03-18T16:39:06.464Z,99790.98
2018-03-18T16:41:34.873Z,99797.22
2018-03-18T16:44:03.332Z,99806.03
2018-03-18T16:46:31.729Z,99799.34
2018-03-18T16:49:00.134Z,99792.30
2018-03-18T16:51:28.588Z,99803.24
2018-03-18T16:53:57.002Z,99804.48
2018-03-18T16:56:25.412Z,99805.30
2018-03-18T16:58:53.889Z,99802.28
2018-03-18T17:01:22.374Z,99798.34
2018-03-18T17:03:51.016Z,99811.17
2018-03-18T17:06:19.454Z,99811.80
2018-03-18T17:08:47.860Z,99816.47
2018-03-18T17:11:16.283Z,99823.02
2018-03-18T17:13:44.747Z,99829.78
2018-03-18T17:16:13.166Z,99825.67
2018-03-18T17:18:41.569Z,99827.38
2018-03-18T17:21:10.027Z,99833.73
2018-03-18T17:23:38.438Z,99834.42
2018-03-18T17:26:06.856Z,99833.55
2018-03-18T17:28:35.315Z,99838.60
2018-03-18T17:31:03.735Z,99848.05
2018-03-18T17:33:32.138Z,99851.30
2018-03-18T17:36:00.591Z,99850.11
2018-03-18T17:38:28.994Z,99854.52
2018-03-18T17:40:57.421Z,99856.42
2018-03-18T17:43:25.912Z,99858.10
2018-03-18T17:46:06.023Z,99857.54
2018-03-18T17:48:46.260Z,99853.02
2018-03-18T17:51:26.398Z,99860.28
2018-03-18T17:54:06.616Z,99865.23
2018-03-18T17:56:36.834Z,99867.26
2018-03-18T17:59:05.248Z,99861.33
2018-03-18T18:01:33.717Z,99875.95
2018-03-18T18:04:02.138Z,99872.80
2018-03-18T18:06:30.543Z,99875.42
2018-03-18T18:08:59.006Z,99873.22
2018-03-18T18:11:27.447Z,99878.55
2018-03-18T18:13:55.862Z,99875.45
2018-03-18T18:16:24.319Z,99879.56
2018-03-18T18:18:52.720Z,99878.64
2018-03-18T18:21:21.126Z,99883.83
2018-03-18T18:23:49.580Z,99879.27
2018-03-18T18:26:17.987Z,99895.42
2018-03-18T18:28:46.437Z,99884.54
2018-03-18T18:31:14.894Z,99891.19
2018-03-18T18:33:43.300Z,99888.56
2018-03-18T18:36:11.728Z,99882.90
2018-03-18T18:38:40.194Z,99890.14
2018-03-18T18:41:08.632Z,99896.48
2018-03-18T18:43:37.034Z,99891.98
2018-03-18T18:46:05.478Z,99889.55
2018-03-18T18:48:33.890Z,99887.66
2018-03-18T18:51:02.328Z,99892.28
2018-03-18T18:53:30.795Z,99895.80
2018-03-18T18:55:59.208Z,99892.19
2018-03-18T18:58:27.656Z,99896.98
2018-03-18T19:00:56.110Z,99900.25
2018-03-18T19:03:24.529Z,99896.92
2018-03-18T19:05:52.947Z,99894.71
2018-03-18T19:08:21.403Z,99892.54
2018-03-18T19:10:49.870Z,99893.55
2018-03-18T19:13:18.285Z,99895.89
2018-03-18T19:15:46.736Z,99892.80
2018-03-18T19:18:15.156Z,99894.89
2018-03-18T19:20:43.558Z,99895.78
2018-03-18T19:23:12.009Z,99895.85
2018-03-18T19:25:40.419Z,99888.73
2018-03-18T19:28:08.832Z,99892.45
2018-03-18T19:30:37.306Z,99884.56
2018-03-18T19:33:05.721Z,99883.54
2018-03-18T19:35:34.139Z,99892.83
2018-03-18T19:38:02.588Z,99900.09
2018-03-18T19:40:30.990Z,99901.50
2018-03-18T19:42:59.422Z,99901.58
2018-03-18T19:45:27.939Z,99904.63
2018-03-18T19:47:56.332Z,99901.50
2018-03-18T19:50:24.740Z,99903.59
2018-03-18T19:52:53.217Z,99910.56
2018-03-18T19:55:21.629Z,99912.55
2018-03-18T19:57:50.034Z,99904.18
2018-03-18T20:00:18.499Z,99911.88
2018-03-18T20:02:46.915Z,99909.73
2018-03-18T20:05:15.341Z,99913.55
2018-03-18T20:07:43.793Z,99910.23
2018-03-18T20:10:12.203Z,99915.89
2018-03-18T20:12:40.607Z,99918.12
2018-03-18T20:15:09.062Z,99914.75
2018-03-18T20:17:37.471Z,99910.63
2018-03-18T20:20:09.090Z,99906.30
2018-03-18T20:22:37.599Z,99913.74
2018-03-18T20:25:06.023Z,99916.78
2018-03-18T20:27:34.452Z,99909.53
2018-03-18T20:30:02.916Z,99917.28
2018-03-18T20:32:31.350Z,99923.08
2018-03-18T20:34:59.750Z,99922.97
2018-03-18T20:37:28.206Z,99921.27
2018-03-18T20:39:56.625Z,99917.73
2018-03-18T20:42:25.064Z,99909.65
2018-03-18T20:44:53.505Z,99907.28
2018-03-18T20:47:21.914Z,99909.59
2018-03-18T20:49:50.328Z,99932.04
2018-03-18T20:52:18.880Z,99913.19
2018-03-18T20:54:47.283Z,99909.34
2018-03-18T20:57:15.788Z,99912.06
2018-03-18T20:59:44.260Z,99921.34
2018-03-18T21:02:12.676Z,99919.39
2018-03-18T21:04:41.084Z,99914.67
2018-03-18T21:07:09.531Z,99927.91
2018-03-18T21:09:37.943Z,99932.19
2018-03-18T21:12:07.615Z,99931.05
2018-03-18T21:14:36.145Z,99929.34
2018-03-18T21:17:04.555Z,99933.96
2018-03-18T21:19:32.958Z,99931.11
2018-03-18T21:22:01.782Z,99930.38
2018-03-18T21:24:30.196Z,99930.96
2018-03-18T21:26:58.608Z,99934.73
2018-03-18T21:29:27.050Z,99929.16
2018-03-18T21:31:55.460Z,99934.58
2018-03-18T21:34:43.691Z,99925.10
2018-03-18T21:37:12.124Z,99923.38
2018-03-18T21:39:40.540Z,99920.39
2018-03-18T21:42:09.012Z,99931.00
2018-03-18T21:44:37.422Z,99918.75
2018-03-18T21:47:05.840Z,99920.58
2018-03-18T21:49:34.304Z,99918.84
2018-03-18T21:52:02.718Z,99908.41
2018-03-18T21:54:31.133Z,99912.23
2018-03-18T21:56:59.596Z,99905.82
2018-03-18T21:59:28.002Z,99917.09
2018-03-18T22:01:56.419Z,99910.02
2018-03-18T22:04:24.872Z,99909.91
2018-03-18T22:06:53.288Z,99919.88
2018-03-18T22:09:21.705Z,99916.03
2018-03-18T22:11:50.148Z,99912.70
2018-03-18T22:14:18.560Z,99921.34
2018-03-18T22:16:46.958Z,99916.13
2018-03-18T22:19:15.424Z,99921.11
2018-03-18T22:21:43.841Z,99927.20
2018-03-18T22:24:12.256Z,99928.59
2018-03-18T22:26:40.717Z,99931.57
2018-03-18T22:29:09.121Z,99936.83
2018-03-18T22:31:37.558Z,99937.50
2018-03-18T22:34:06.006Z,99928.82
2018-03-18T22:36:34.416Z,99923.69
2018-03-18T22:39:02.830Z,99925.89
2018-03-18T22:41:31.275Z,99927.30
2018-03-18T22:43:59.684Z,99935.48
2018-03-18T22:46:28.089Z,99921.65
2018-03-18T22:48:56.564Z,99929.12
2018-03-18T22:51:24.970Z,99927.53
2018-03-18T22:53:53.384Z,99929.02
2018-03-18T22:56:21.839Z,99928.16
2018-03-18T22:58:50.237Z,99932.94
2018-03-18T23:01:18.659Z,99933.30
2018-03-18T23:03:47.142Z,99929.56
2018-03-18T23:06:15.560Z,99928.39
2018-03-18T23:08:43.970Z,99929.14
2018-03-18T23:11:12.427Z,99930.31
2018-03-18T23:13:40.840Z,99929.45
2018-03-18T23:16:09.271Z,99929.08
2018-03-18T23:18:37.740Z,99933.16
2018-03-18T23:21:06.160Z,99932.84
2018-03-18T23:23:34.574Z,99943.97
2018-03-18T23:26:03.032Z,99939.20
2018-03-18T23:28:31.441Z,99940.95
2018-03-18T23:30:59.838Z,99942.91
2018-03-18T23:33:28.278Z,99950.02
2018-03-18T23:35:56.692Z,99941.70
2018-03-18T23:38:25.114Z,99940.86
2018-03-18T23:40:53.584Z,99951.73
2018-03-18T23:43:22.000Z,99950.58
2018-03-18T23:45:50.394Z,99947.27
2018-03-18T23:48:18.847Z,99943.20
2018-03-18T23:50:49.118Z,99950.28
2018-03-18T23:53:17.528Z,99939.94
2018-03-18T23:55:45.966Z,99947.42
2018-03-18T23:58:14.401Z,99952.44
